Madison, AL (35758)

7:18 AM CDT on September 02, 2014 (GMT -0500)
Foxfield | Change Station
CLOSE
Current Station
Personal Weather Station
Location: Madison, AL
Elevation: 710 ft
Nearby Weather Stations

Elev 710 ft 34.71 °N, 86.76 °W | Updated 15 seconds ago

Mostly Cloudy
Mostly Cloudy
70.5 °F
Feels Like 70.5 °F
N
0.0
Wind Variable Wind from NNW

Today
High -- | Low -- °F
--% Chance of Precip.
Yesterday
High -- | Low -- °F
Precip. -- in
6:20 AM 7:12 PM
Waxing Crescent, 51% visible
Pressure 30.07 in
Visibility 10.0 miles
Clouds Scattered Clouds 18000 ft
Mostly Cloudy 25000 ft
Dew Point 68 °F
Humidity 92%
Rainfall 0.00 in
Snow Depth Not available.
UV 0.0 out of 12
Pollen 10.00 out of 12
PM2.5 Moderate
Flu Activity Not available.
METAR KHSV 021153Z 12005KT 10SM SCT180 BKN250 23/21 A3009 RMK AO2 SLP182 T02330211 10244 20228 52011 $

More Conditions Fewer Conditions

Pressure 30.07 in
Visibility 10.0 miles
Clouds Scattered Clouds 18000 ft
Mostly Cloudy 25000 ft
Dew Point 68 °F
Humidity 92%
Rainfall 0.00 in
Snow Depth Not available.
UV 0.0 out of 12
Pollen 10.00 out of 12
PM2.5 Moderate
Flu Activity Not available.
METAR KHSV 021153Z 12005KT 10SM SCT180 BKN250 23/21 A3009 RMK AO2 SLP182 T02330211 10244 20228 52011 $

More Conditions Fewer Conditions

10-Day Weather Forecast

Almanac

Astronomy

Sep. 02, 2014 Rise Set
Actual Time 6:20 AM CDT 7:12 PM CDT
Civil Twilight 5:55 AM CDT 7:37 PM CDT
Nautical Twilight 5:24 AM CDT 8:08 PM CDT
Astronomical Twilight 4:53 AM CDT 8:39 PM CDT
Moon 1:47 PM CDT No Moon Set
Length of Visible Light 13h 42m
Length of Day
12h 51m
Tomorrow will be 2m 5s shorter.
Waxing Crescent, 51% of the Moon is Illuminated
Today
Waxing Crescent
Sep 8
Full
Sep 15
Last Quarter
Sep 24
New
Oct 1
First Quarter

Today's Extremes

State Highs State Lows

Community

WunderPhotos

Upload Photos

1,749,638 photos uploaded!

WunderBlogs® & News

By Dr. Jeff Masters
Director of Meteorology, Weather Underground
By Kari Strenfel
Meteorologist, Weather Underground
By Christopher C. Burt
Weather Historian, Weather Underground
September 2, 2014
September 2, 2014
September 2, 2014

Nearby

Air Quality

  Air Quality AQ Index Pollutant
Yesterday Moderate
PM2.5
Yesterday Good
OZONE
Current Moderate
PM2.5
Tuesday Good
PM2.5
Tuesday Good
OZONE

Snow Depth

Station Depth Elevation
No new snow has been reported.

Earthquake Activity

City Distance Mag. Time & Date
No recent earthquake activity has been reported nearby.
Minimum magnitude displayed is 2.5.

Coastal Water Temperatures

Place Temperature
No Stations Reporting

Nearby Weather Stations